<?xml version="1.0" encoding="UTF-8" standalone="no" ?>
<gpx xmlns="http://www.topografix.com/GPX/1/1" xmlns:xsi="http://www.w3.org/2001/XMLSchema-instance" xsi:schemaLocation="http://www.topografix.com/GPX/1/1 http://www.topografix.com/GPX/1/1/gpx.xsd" version="1.1" creator="VisuGPX - https://www.visugpx.com">
  <metadata>
    <name>Pointe de Chalune par le col de Foron</name>
    <desc><![CDATA[Pointe de Chalune par le col de Foron depuis Bonnavaz]]></desc>
  </metadata>
  <trk>
    <name><![CDATA[Tracé actuel: 28 JAN 2018 09:31]]></name>
    <trkseg>
      <trkpt lat="46.15586" lon="6.6176">
        <ele>1180.64</ele>
        <time>2018-01-28T08:32:44Z</time>
      </trkpt>
      <trkpt lat="46.15592" lon="6.61756">
        <ele>1193.13</ele>
        <time>2018-01-28T08:37:09Z</time>
      </trkpt>
      <trkpt lat="46.15604" lon="6.61759">
        <ele>1194.09</ele>
        <time>2018-01-28T08:39:48Z</time>
      </trkpt>
      <trkpt lat="46.1562" lon="6.61755">
        <ele>1195.54</ele>
        <time>2018-01-28T08:41:16Z</time>
      </trkpt>
      <trkpt lat="46.15642" lon="6.61757">
        <ele>1196.02</ele>
        <time>2018-01-28T08:43:23Z</time>
      </trkpt>
      <trkpt lat="46.15675" lon="6.61752">
        <ele>1196.02</ele>
        <time>2018-01-28T08:44:03Z</time>
      </trkpt>
      <trkpt lat="46.15704" lon="6.61755">
        <ele>1197.94</ele>
        <time>2018-01-28T08:44:35Z</time>
      </trkpt>
      <trkpt lat="46.1573" lon="6.61767">
        <ele>1200.34</ele>
        <time>2018-01-28T08:45:05Z</time>
      </trkpt>
      <trkpt lat="46.15764" lon="6.61779">
        <ele>1202.27</ele>
        <time>2018-01-28T08:45:43Z</time>
      </trkpt>
      <trkpt lat="46.15793" lon="6.61789">
        <ele>1202.75</ele>
        <time>2018-01-28T08:46:14Z</time>
      </trkpt>
      <trkpt lat="46.15827" lon="6.61803">
        <ele>1203.23</ele>
        <time>2018-01-28T08:46:46Z</time>
      </trkpt>
      <trkpt lat="46.15859" lon="6.61815">
        <ele>1203.23</ele>
        <time>2018-01-28T08:47:16Z</time>
      </trkpt>
      <trkpt lat="46.15884" lon="6.61827">
        <ele>1203.71</ele>
        <time>2018-01-28T08:47:39Z</time>
      </trkpt>
      <trkpt lat="46.15913" lon="6.61842">
        <ele>1205.15</ele>
        <time>2018-01-28T08:48:08Z</time>
      </trkpt>
      <trkpt lat="46.1594" lon="6.6185">
        <ele>1206.59</ele>
        <time>2018-01-28T08:48:36Z</time>
      </trkpt>
      <trkpt lat="46.15968" lon="6.61856">
        <ele>1208.03</ele>
        <time>2018-01-28T08:49:05Z</time>
      </trkpt>
      <trkpt lat="46.15995" lon="6.61863">
        <ele>1209</ele>
        <time>2018-01-28T08:49:35Z</time>
      </trkpt>
      <trkpt lat="46.16021" lon="6.61862">
        <ele>1209.96</ele>
        <time>2018-01-28T08:50:02Z</time>
      </trkpt>
      <trkpt lat="46.16046" lon="6.61863">
        <ele>1210.44</ele>
        <time>2018-01-28T08:50:30Z</time>
      </trkpt>
      <trkpt lat="46.16083" lon="6.61868">
        <ele>1211.4</ele>
        <time>2018-01-28T08:51:03Z</time>
      </trkpt>
      <trkpt lat="46.16118" lon="6.61867">
        <ele>1211.4</ele>
        <time>2018-01-28T08:51:34Z</time>
      </trkpt>
      <trkpt lat="46.16147" lon="6.6187">
        <ele>1212.84</ele>
        <time>2018-01-28T08:52:01Z</time>
      </trkpt>
      <trkpt lat="46.16185" lon="6.61883">
        <ele>1214.76</ele>
        <time>2018-01-28T08:52:38Z</time>
      </trkpt>
      <trkpt lat="46.16219" lon="6.61892">
        <ele>1216.21</ele>
        <time>2018-01-28T08:53:09Z</time>
      </trkpt>
      <trkpt lat="46.16253" lon="6.619">
        <ele>1220.05</ele>
        <time>2018-01-28T08:53:44Z</time>
      </trkpt>
      <trkpt lat="46.16276" lon="6.61904">
        <ele>1222.93</ele>
        <time>2018-01-28T08:54:13Z</time>
      </trkpt>
      <trkpt lat="46.1631" lon="6.61897">
        <ele>1226.3</ele>
        <time>2018-01-28T08:54:45Z</time>
      </trkpt>
      <trkpt lat="46.16321" lon="6.61889">
        <ele>1227.26</ele>
        <time>2018-01-28T08:58:37Z</time>
      </trkpt>
      <trkpt lat="46.16344" lon="6.6188">
        <ele>1229.66</ele>
        <time>2018-01-28T08:59:16Z</time>
      </trkpt>
      <trkpt lat="46.16374" lon="6.61862">
        <ele>1233.51</ele>
        <time>2018-01-28T08:59:48Z</time>
      </trkpt>
      <trkpt lat="46.16403" lon="6.61847">
        <ele>1236.87</ele>
        <time>2018-01-28T09:00:19Z</time>
      </trkpt>
      <trkpt lat="46.1643" lon="6.61841">
        <ele>1238.8</ele>
        <time>2018-01-28T09:00:46Z</time>
      </trkpt>
      <trkpt lat="46.16465" lon="6.61829">
        <ele>1240.72</ele>
        <time>2018-01-28T09:01:18Z</time>
      </trkpt>
      <trkpt lat="46.16499" lon="6.6181">
        <ele>1244.08</ele>
        <time>2018-01-28T09:01:52Z</time>
      </trkpt>
      <trkpt lat="46.16524" lon="6.61795">
        <ele>1246.97</ele>
        <time>2018-01-28T09:02:18Z</time>
      </trkpt>
      <trkpt lat="46.1655" lon="6.6178">
        <ele>1249.37</ele>
        <time>2018-01-28T09:02:46Z</time>
      </trkpt>
      <trkpt lat="46.16577" lon="6.61766">
        <ele>1252.25</ele>
        <time>2018-01-28T09:03:15Z</time>
      </trkpt>
      <trkpt lat="46.16599" lon="6.61759">
        <ele>1254.18</ele>
        <time>2018-01-28T09:03:41Z</time>
      </trkpt>
      <trkpt lat="46.1662" lon="6.61744">
        <ele>1255.62</ele>
        <time>2018-01-28T09:04:01Z</time>
      </trkpt>
      <trkpt lat="46.16645" lon="6.61731">
        <ele>1256.58</ele>
        <time>2018-01-28T09:04:28Z</time>
      </trkpt>
      <trkpt lat="46.16671" lon="6.61718">
        <ele>1258.02</ele>
        <time>2018-01-28T09:04:56Z</time>
      </trkpt>
      <trkpt lat="46.16694" lon="6.61703">
        <ele>1259.46</ele>
        <time>2018-01-28T09:05:23Z</time>
      </trkpt>
      <trkpt lat="46.16724" lon="6.61683">
        <ele>1262.83</ele>
        <time>2018-01-28T09:06:02Z</time>
      </trkpt>
      <trkpt lat="46.16755" lon="6.61677">
        <ele>1264.75</ele>
        <time>2018-01-28T09:06:32Z</time>
      </trkpt>
      <trkpt lat="46.16788" lon="6.61669">
        <ele>1268.12</ele>
        <time>2018-01-28T09:07:09Z</time>
      </trkpt>
      <trkpt lat="46.16813" lon="6.61665">
        <ele>1270.52</ele>
        <time>2018-01-28T09:07:34Z</time>
      </trkpt>
      <trkpt lat="46.16835" lon="6.61664">
        <ele>1272.44</ele>
        <time>2018-01-28T09:08:01Z</time>
      </trkpt>
      <trkpt lat="46.16858" lon="6.61663">
        <ele>1274.36</ele>
        <time>2018-01-28T09:08:29Z</time>
      </trkpt>
      <trkpt lat="46.16887" lon="6.61662">
        <ele>1277.73</ele>
        <time>2018-01-28T09:08:58Z</time>
      </trkpt>
      <trkpt lat="46.16913" lon="6.61659">
        <ele>1280.61</ele>
        <time>2018-01-28T09:09:30Z</time>
      </trkpt>
      <trkpt lat="46.16936" lon="6.61667">
        <ele>1282.54</ele>
        <time>2018-01-28T09:09:55Z</time>
      </trkpt>
      <trkpt lat="46.16958" lon="6.6168">
        <ele>1284.94</ele>
        <time>2018-01-28T09:10:22Z</time>
      </trkpt>
      <trkpt lat="46.16982" lon="6.61691">
        <ele>1287.34</ele>
        <time>2018-01-28T09:10:51Z</time>
      </trkpt>
      <trkpt lat="46.17005" lon="6.61704">
        <ele>1289.75</ele>
        <time>2018-01-28T09:11:20Z</time>
      </trkpt>
      <trkpt lat="46.17023" lon="6.61694">
        <ele>1295.99</ele>
        <time>2018-01-28T09:12:20Z</time>
      </trkpt>
      <trkpt lat="46.17042" lon="6.61691">
        <ele>1301.76</ele>
        <time>2018-01-28T09:14:29Z</time>
      </trkpt>
      <trkpt lat="46.17053" lon="6.61653">
        <ele>1310.9</ele>
        <time>2018-01-28T09:15:29Z</time>
      </trkpt>
      <trkpt lat="46.17071" lon="6.61618">
        <ele>1319.07</ele>
        <time>2018-01-28T09:16:21Z</time>
      </trkpt>
      <trkpt lat="46.17073" lon="6.61579">
        <ele>1326.28</ele>
        <time>2018-01-28T09:17:17Z</time>
      </trkpt>
      <trkpt lat="46.17056" lon="6.61556">
        <ele>1328.68</ele>
        <time>2018-01-28T09:17:46Z</time>
      </trkpt>
      <trkpt lat="46.17049" lon="6.61526">
        <ele>1331.08</ele>
        <time>2018-01-28T09:18:15Z</time>
      </trkpt>
      <trkpt lat="46.17079" lon="6.61535">
        <ele>1334.45</ele>
        <time>2018-01-28T09:18:59Z</time>
      </trkpt>
      <trkpt lat="46.17109" lon="6.61559">
        <ele>1338.29</ele>
        <time>2018-01-28T09:19:43Z</time>
      </trkpt>
      <trkpt lat="46.17135" lon="6.61571">
        <ele>1341.66</ele>
        <time>2018-01-28T09:20:22Z</time>
      </trkpt>
      <trkpt lat="46.17157" lon="6.61576">
        <ele>1344.06</ele>
        <time>2018-01-28T09:20:56Z</time>
      </trkpt>
      <trkpt lat="46.17188" lon="6.61571">
        <ele>1347.91</ele>
        <time>2018-01-28T09:21:35Z</time>
      </trkpt>
      <trkpt lat="46.17205" lon="6.6155">
        <ele>1350.79</ele>
        <time>2018-01-28T09:22:06Z</time>
      </trkpt>
      <trkpt lat="46.17223" lon="6.61506">
        <ele>1354.15</ele>
        <time>2018-01-28T09:22:48Z</time>
      </trkpt>
      <trkpt lat="46.17238" lon="6.61474">
        <ele>1356.56</ele>
        <time>2018-01-28T09:23:18Z</time>
      </trkpt>
      <trkpt lat="46.17253" lon="6.61439">
        <ele>1358.48</ele>
        <time>2018-01-28T09:23:49Z</time>
      </trkpt>
      <trkpt lat="46.17266" lon="6.61407">
        <ele>1360.4</ele>
        <time>2018-01-28T09:24:18Z</time>
      </trkpt>
      <trkpt lat="46.1728" lon="6.61377">
        <ele>1361.84</ele>
        <time>2018-01-28T09:24:47Z</time>
      </trkpt>
      <trkpt lat="46.17301" lon="6.61339">
        <ele>1362.33</ele>
        <time>2018-01-28T09:25:29Z</time>
      </trkpt>
      <trkpt lat="46.17317" lon="6.61315">
        <ele>1362.33</ele>
        <time>2018-01-28T09:25:54Z</time>
      </trkpt>
      <trkpt lat="46.17337" lon="6.61284">
        <ele>1364.73</ele>
        <time>2018-01-28T09:26:30Z</time>
      </trkpt>
      <trkpt lat="46.17347" lon="6.61244">
        <ele>1363.77</ele>
        <time>2018-01-28T09:27:15Z</time>
      </trkpt>
      <trkpt lat="46.17346" lon="6.612">
        <ele>1364.73</ele>
        <time>2018-01-28T09:27:52Z</time>
      </trkpt>
      <trkpt lat="46.17358" lon="6.61167">
        <ele>1365.21</ele>
        <time>2018-01-28T09:28:35Z</time>
      </trkpt>
      <trkpt lat="46.17372" lon="6.61159">
        <ele>1363.77</ele>
        <time>2018-01-28T09:30:35Z</time>
      </trkpt>
      <trkpt lat="46.17383" lon="6.61118">
        <ele>1368.57</ele>
        <time>2018-01-28T09:31:36Z</time>
      </trkpt>
      <trkpt lat="46.17383" lon="6.61071">
        <ele>1372.42</ele>
        <time>2018-01-28T09:32:15Z</time>
      </trkpt>
      <trkpt lat="46.17394" lon="6.61023">
        <ele>1373.86</ele>
        <time>2018-01-28T09:32:52Z</time>
      </trkpt>
      <trkpt lat="46.17404" lon="6.60991">
        <ele>1375.78</ele>
        <time>2018-01-28T09:33:17Z</time>
      </trkpt>
      <trkpt lat="46.17423" lon="6.6095">
        <ele>1378.67</ele>
        <time>2018-01-28T09:33:55Z</time>
      </trkpt>
      <trkpt lat="46.17434" lon="6.60916">
        <ele>1382.51</ele>
        <time>2018-01-28T09:34:28Z</time>
      </trkpt>
      <trkpt lat="46.17449" lon="6.60877">
        <ele>1386.84</ele>
        <time>2018-01-28T09:35:09Z</time>
      </trkpt>
      <trkpt lat="46.17465" lon="6.60842">
        <ele>1390.68</ele>
        <time>2018-01-28T09:35:48Z</time>
      </trkpt>
      <trkpt lat="46.17475" lon="6.60803">
        <ele>1395.49</ele>
        <time>2018-01-28T09:36:28Z</time>
      </trkpt>
      <trkpt lat="46.17475" lon="6.60761">
        <ele>1401.26</ele>
        <time>2018-01-28T09:37:08Z</time>
      </trkpt>
      <trkpt lat="46.17484" lon="6.60725">
        <ele>1406.07</ele>
        <time>2018-01-28T09:37:42Z</time>
      </trkpt>
      <trkpt lat="46.1749" lon="6.6069">
        <ele>1410.87</ele>
        <time>2018-01-28T09:38:21Z</time>
      </trkpt>
      <trkpt lat="46.17502" lon="6.60651">
        <ele>1414.24</ele>
        <time>2018-01-28T09:38:59Z</time>
      </trkpt>
      <trkpt lat="46.17511" lon="6.60621">
        <ele>1417.12</ele>
        <time>2018-01-28T09:39:28Z</time>
      </trkpt>
      <trkpt lat="46.17516" lon="6.60589">
        <ele>1419.04</ele>
        <time>2018-01-28T09:39:54Z</time>
      </trkpt>
      <trkpt lat="46.1753" lon="6.60551">
        <ele>1421.45</ele>
        <time>2018-01-28T09:40:29Z</time>
      </trkpt>
      <trkpt lat="46.1755" lon="6.60529">
        <ele>1424.81</ele>
        <time>2018-01-28T09:40:58Z</time>
      </trkpt>
      <trkpt lat="46.1757" lon="6.60511">
        <ele>1427.21</ele>
        <time>2018-01-28T09:41:26Z</time>
      </trkpt>
      <trkpt lat="46.17594" lon="6.6048">
        <ele>1433.46</ele>
        <time>2018-01-28T09:42:06Z</time>
      </trkpt>
      <trkpt lat="46.17618" lon="6.60461">
        <ele>1438.75</ele>
        <time>2018-01-28T09:42:42Z</time>
      </trkpt>
      <trkpt lat="46.17633" lon="6.60469">
        <ele>1441.63</ele>
        <time>2018-01-28T09:44:28Z</time>
      </trkpt>
      <trkpt lat="46.17636" lon="6.60462">
        <ele>1442.6</ele>
        <time>2018-01-28T09:48:43Z</time>
      </trkpt>
      <trkpt lat="46.17647" lon="6.60431">
        <ele>1449.32</ele>
        <time>2018-01-28T09:49:25Z</time>
      </trkpt>
      <trkpt lat="46.17659" lon="6.60405">
        <ele>1454.13</ele>
        <time>2018-01-28T09:50:06Z</time>
      </trkpt>
      <trkpt lat="46.17674" lon="6.60379">
        <ele>1460.38</ele>
        <time>2018-01-28T09:50:51Z</time>
      </trkpt>
      <trkpt lat="46.17692" lon="6.60357">
        <ele>1467.11</ele>
        <time>2018-01-28T09:51:42Z</time>
      </trkpt>
      <trkpt lat="46.17715" lon="6.6034">
        <ele>1474.8</ele>
        <time>2018-01-28T09:52:37Z</time>
      </trkpt>
      <trkpt lat="46.1773" lon="6.60306">
        <ele>1483.45</ele>
        <time>2018-01-28T09:53:31Z</time>
      </trkpt>
      <trkpt lat="46.17739" lon="6.60267">
        <ele>1491.14</ele>
        <time>2018-01-28T09:54:28Z</time>
      </trkpt>
      <trkpt lat="46.17756" lon="6.60244">
        <ele>1499.31</ele>
        <time>2018-01-28T09:55:25Z</time>
      </trkpt>
      <trkpt lat="46.17772" lon="6.60216">
        <ele>1507</ele>
        <time>2018-01-28T09:56:17Z</time>
      </trkpt>
      <trkpt lat="46.17795" lon="6.60205">
        <ele>1513.73</ele>
        <time>2018-01-28T09:57:11Z</time>
      </trkpt>
      <trkpt lat="46.17787" lon="6.60179">
        <ele>1522.87</ele>
        <time>2018-01-28T09:58:17Z</time>
      </trkpt>
      <trkpt lat="46.17812" lon="6.60164">
        <ele>1530.08</ele>
        <time>2018-01-28T09:59:13Z</time>
      </trkpt>
      <trkpt lat="46.17799" lon="6.6014">
        <ele>1537.77</ele>
        <time>2018-01-28T10:00:10Z</time>
      </trkpt>
      <trkpt lat="46.17817" lon="6.60126">
        <ele>1546.42</ele>
        <time>2018-01-28T10:01:06Z</time>
      </trkpt>
      <trkpt lat="46.17804" lon="6.60099">
        <ele>1553.63</ele>
        <time>2018-01-28T10:02:00Z</time>
      </trkpt>
      <trkpt lat="46.17814" lon="6.60078">
        <ele>1563.24</ele>
        <time>2018-01-28T10:03:05Z</time>
      </trkpt>
      <trkpt lat="46.17821" lon="6.60052">
        <ele>1572.37</ele>
        <time>2018-01-28T10:04:13Z</time>
      </trkpt>
      <trkpt lat="46.17816" lon="6.60027">
        <ele>1579.1</ele>
        <time>2018-01-28T10:05:05Z</time>
      </trkpt>
      <trkpt lat="46.17825" lon="6.60006">
        <ele>1586.31</ele>
        <time>2018-01-28T10:05:57Z</time>
      </trkpt>
      <trkpt lat="46.1784" lon="6.59982">
        <ele>1594.48</ele>
        <time>2018-01-28T10:06:49Z</time>
      </trkpt>
      <trkpt lat="46.17825" lon="6.59957">
        <ele>1601.69</ele>
        <time>2018-01-28T10:07:42Z</time>
      </trkpt>
      <trkpt lat="46.17846" lon="6.59932">
        <ele>1610.83</ele>
        <time>2018-01-28T10:08:48Z</time>
      </trkpt>
      <trkpt lat="46.1786" lon="6.59906">
        <ele>1618.04</ele>
        <time>2018-01-28T10:09:38Z</time>
      </trkpt>
      <trkpt lat="46.17868" lon="6.59874">
        <ele>1625.73</ele>
        <time>2018-01-28T10:10:32Z</time>
      </trkpt>
      <trkpt lat="46.17869" lon="6.59856">
        <ele>1628.61</ele>
        <time>2018-01-28T10:13:58Z</time>
      </trkpt>
      <trkpt lat="46.17873" lon="6.5983">
        <ele>1635.34</ele>
        <time>2018-01-28T10:15:33Z</time>
      </trkpt>
      <trkpt lat="46.17868" lon="6.59798">
        <ele>1641.59</ele>
        <time>2018-01-28T10:16:15Z</time>
      </trkpt>
      <trkpt lat="46.17867" lon="6.59756">
        <ele>1648.8</ele>
        <time>2018-01-28T10:17:09Z</time>
      </trkpt>
      <trkpt lat="46.17863" lon="6.59715">
        <ele>1656.49</ele>
        <time>2018-01-28T10:18:03Z</time>
      </trkpt>
      <trkpt lat="46.17871" lon="6.59674">
        <ele>1663.22</ele>
        <time>2018-01-28T10:18:57Z</time>
      </trkpt>
      <trkpt lat="46.17876" lon="6.5964">
        <ele>1669.47</ele>
        <time>2018-01-28T10:19:38Z</time>
      </trkpt>
      <trkpt lat="46.1788" lon="6.59607">
        <ele>1676.68</ele>
        <time>2018-01-28T10:20:28Z</time>
      </trkpt>
      <trkpt lat="46.17884" lon="6.59574">
        <ele>1680.52</ele>
        <time>2018-01-28T10:21:05Z</time>
      </trkpt>
      <trkpt lat="46.1789" lon="6.59534">
        <ele>1685.81</ele>
        <time>2018-01-28T10:21:44Z</time>
      </trkpt>
      <trkpt lat="46.17899" lon="6.59495">
        <ele>1690.14</ele>
        <time>2018-01-28T10:22:27Z</time>
      </trkpt>
      <trkpt lat="46.17909" lon="6.59463">
        <ele>1693.98</ele>
        <time>2018-01-28T10:23:09Z</time>
      </trkpt>
      <trkpt lat="46.1792" lon="6.59434">
        <ele>1697.83</ele>
        <time>2018-01-28T10:23:49Z</time>
      </trkpt>
      <trkpt lat="46.17932" lon="6.59395">
        <ele>1703.59</ele>
        <time>2018-01-28T10:24:46Z</time>
      </trkpt>
      <trkpt lat="46.17939" lon="6.59372">
        <ele>1711.28</ele>
        <time>2018-01-28T10:25:48Z</time>
      </trkpt>
      <trkpt lat="46.1794" lon="6.59339">
        <ele>1719.94</ele>
        <time>2018-01-28T10:26:54Z</time>
      </trkpt>
      <trkpt lat="46.17945" lon="6.59314">
        <ele>1727.15</ele>
        <time>2018-01-28T10:28:05Z</time>
      </trkpt>
      <trkpt lat="46.17944" lon="6.59284">
        <ele>1733.88</ele>
        <time>2018-01-28T10:28:54Z</time>
      </trkpt>
      <trkpt lat="46.17945" lon="6.59254">
        <ele>1741.57</ele>
        <time>2018-01-28T10:29:48Z</time>
      </trkpt>
      <trkpt lat="46.17963" lon="6.5923">
        <ele>1749.26</ele>
        <time>2018-01-28T10:30:44Z</time>
      </trkpt>
      <trkpt lat="46.17972" lon="6.59196">
        <ele>1756.95</ele>
        <time>2018-01-28T10:31:42Z</time>
      </trkpt>
      <trkpt lat="46.17983" lon="6.59175">
        <ele>1766.56</ele>
        <time>2018-01-28T10:32:45Z</time>
      </trkpt>
      <trkpt lat="46.17999" lon="6.59143">
        <ele>1776.65</ele>
        <time>2018-01-28T10:33:51Z</time>
      </trkpt>
      <trkpt lat="46.18018" lon="6.59118">
        <ele>1784.34</ele>
        <time>2018-01-28T10:34:52Z</time>
      </trkpt>
      <trkpt lat="46.18039" lon="6.59098">
        <ele>1794.44</ele>
        <time>2018-01-28T10:35:57Z</time>
      </trkpt>
      <trkpt lat="46.18061" lon="6.59089">
        <ele>1802.61</ele>
        <time>2018-01-28T10:37:02Z</time>
      </trkpt>
      <trkpt lat="46.18075" lon="6.59058">
        <ele>1811.26</ele>
        <time>2018-01-28T10:38:09Z</time>
      </trkpt>
      <trkpt lat="46.18089" lon="6.59023">
        <ele>1821.35</ele>
        <time>2018-01-28T10:39:31Z</time>
      </trkpt>
      <trkpt lat="46.18107" lon="6.59005">
        <ele>1832.41</ele>
        <time>2018-01-28T10:40:55Z</time>
      </trkpt>
      <trkpt lat="46.18107" lon="6.58991">
        <ele>1830.01</ele>
        <time>2018-01-28T10:45:43Z</time>
      </trkpt>
      <trkpt lat="46.18092" lon="6.58967">
        <ele>1843.47</ele>
        <time>2018-01-28T10:47:04Z</time>
      </trkpt>
      <trkpt lat="46.18076" lon="6.58941">
        <ele>1850.68</ele>
        <time>2018-01-28T10:47:57Z</time>
      </trkpt>
      <trkpt lat="46.1806" lon="6.58916">
        <ele>1856.44</ele>
        <time>2018-01-28T10:48:45Z</time>
      </trkpt>
      <trkpt lat="46.18047" lon="6.58889">
        <ele>1862.69</ele>
        <time>2018-01-28T10:49:35Z</time>
      </trkpt>
      <trkpt lat="46.18035" lon="6.58856">
        <ele>1870.38</ele>
        <time>2018-01-28T10:50:27Z</time>
      </trkpt>
      <trkpt lat="46.18019" lon="6.58823">
        <ele>1877.11</ele>
        <time>2018-01-28T10:51:25Z</time>
      </trkpt>
      <trkpt lat="46.18001" lon="6.58802">
        <ele>1880</ele>
        <time>2018-01-28T10:52:14Z</time>
      </trkpt>
      <trkpt lat="46.1798" lon="6.58781">
        <ele>1886.24</ele>
        <time>2018-01-28T10:53:02Z</time>
      </trkpt>
      <trkpt lat="46.17957" lon="6.58761">
        <ele>1889.61</ele>
        <time>2018-01-28T10:54:00Z</time>
      </trkpt>
      <trkpt lat="46.17932" lon="6.58754">
        <ele>1891.05</ele>
        <time>2018-01-28T10:55:00Z</time>
      </trkpt>
      <trkpt lat="46.17909" lon="6.58756">
        <ele>1894.9</ele>
        <time>2018-01-28T10:55:51Z</time>
      </trkpt>
      <trkpt lat="46.17909" lon="6.58738">
        <ele>1900.18</ele>
        <time>2018-01-28T10:56:54Z</time>
      </trkpt>
      <trkpt lat="46.17918" lon="6.58705">
        <ele>1909.32</ele>
        <time>2018-01-28T10:58:08Z</time>
      </trkpt>
      <trkpt lat="46.17936" lon="6.58679">
        <ele>1917.49</ele>
        <time>2018-01-28T10:59:17Z</time>
      </trkpt>
      <trkpt lat="46.17961" lon="6.58691">
        <ele>1925.18</ele>
        <time>2018-01-28T11:00:32Z</time>
      </trkpt>
      <trkpt lat="46.17981" lon="6.58686">
        <ele>1933.83</ele>
        <time>2018-01-28T11:01:43Z</time>
      </trkpt>
      <trkpt lat="46.17981" lon="6.58649">
        <ele>1941.52</ele>
        <time>2018-01-28T11:02:43Z</time>
      </trkpt>
      <trkpt lat="46.17997" lon="6.58651">
        <ele>1949.21</ele>
        <time>2018-01-28T11:03:45Z</time>
      </trkpt>
      <trkpt lat="46.18024" lon="6.58659">
        <ele>1957.86</ele>
        <time>2018-01-28T11:04:51Z</time>
      </trkpt>
      <trkpt lat="46.18051" lon="6.58663">
        <ele>1965.55</ele>
        <time>2018-01-28T11:05:55Z</time>
      </trkpt>
      <trkpt lat="46.18052" lon="6.5863">
        <ele>1973.72</ele>
        <time>2018-01-28T11:06:45Z</time>
      </trkpt>
      <trkpt lat="46.18047" lon="6.58597">
        <ele>1981.9</ele>
        <time>2018-01-28T11:07:49Z</time>
      </trkpt>
      <trkpt lat="46.18042" lon="6.58564">
        <ele>1991.51</ele>
        <time>2018-01-28T11:09:00Z</time>
      </trkpt>
      <trkpt lat="46.18031" lon="6.58529">
        <ele>1999.68</ele>
        <time>2018-01-28T11:10:15Z</time>
      </trkpt>
      <trkpt lat="46.18021" lon="6.58497">
        <ele>2010.25</ele>
        <time>2018-01-28T11:11:31Z</time>
      </trkpt>
      <trkpt lat="46.18013" lon="6.58461">
        <ele>2020.35</ele>
        <time>2018-01-28T11:12:40Z</time>
      </trkpt>
      <trkpt lat="46.18006" lon="6.58427">
        <ele>2030.44</ele>
        <time>2018-01-28T11:13:53Z</time>
      </trkpt>
      <trkpt lat="46.18001" lon="6.58395">
        <ele>2040.05</ele>
        <time>2018-01-28T11:15:18Z</time>
      </trkpt>
      <trkpt lat="46.17999" lon="6.58364">
        <ele>2047.26</ele>
        <time>2018-01-28T11:16:19Z</time>
      </trkpt>
      <trkpt lat="46.17998" lon="6.58333">
        <ele>2056.4</ele>
        <time>2018-01-28T11:17:58Z</time>
      </trkpt>
      <trkpt lat="46.17997" lon="6.58299">
        <ele>2062.65</ele>
        <time>2018-01-28T11:18:57Z</time>
      </trkpt>
      <trkpt lat="46.18004" lon="6.58261">
        <ele>2070.34</ele>
        <time>2018-01-28T11:20:04Z</time>
      </trkpt>
      <trkpt lat="46.1801" lon="6.58234">
        <ele>2079.95</ele>
        <time>2018-01-28T11:21:13Z</time>
      </trkpt>
      <trkpt lat="46.18014" lon="6.58207">
        <ele>2088.12</ele>
        <time>2018-01-28T11:22:24Z</time>
      </trkpt>
      <trkpt lat="46.18012" lon="6.58188">
        <ele>2092.93</ele>
        <time>2018-01-28T11:26:34Z</time>
      </trkpt>
      <trkpt lat="46.18" lon="6.5816">
        <ele>2106.39</ele>
        <time>2018-01-28T11:28:14Z</time>
      </trkpt>
      <trkpt lat="46.18002" lon="6.58148">
        <ele>2106.39</ele>
        <time>2018-01-28T11:35:59Z</time>
      </trkpt>
      <trkpt lat="46.18003" lon="6.58171">
        <ele>2103.98</ele>
        <time>2018-01-28T11:40:24Z</time>
      </trkpt>
      <trkpt lat="46.18004" lon="6.58192">
        <ele>2093.41</ele>
        <time>2018-01-28T11:40:32Z</time>
      </trkpt>
      <trkpt lat="46.18006" lon="6.5822">
        <ele>2083.79</ele>
        <time>2018-01-28T11:40:39Z</time>
      </trkpt>
      <trkpt lat="46.18002" lon="6.58254">
        <ele>2073.7</ele>
        <time>2018-01-28T11:40:46Z</time>
      </trkpt>
      <trkpt lat="46.18" lon="6.58291">
        <ele>2064.57</ele>
        <time>2018-01-28T11:40:51Z</time>
      </trkpt>
      <trkpt lat="46.17997" lon="6.58323">
        <ele>2059.28</ele>
        <time>2018-01-28T11:40:57Z</time>
      </trkpt>
      <trkpt lat="46.17991" lon="6.58349">
        <ele>2051.11</ele>
        <time>2018-01-28T11:41:03Z</time>
      </trkpt>
      <trkpt lat="46.17998" lon="6.58383">
        <ele>2045.34</ele>
        <time>2018-01-28T11:41:21Z</time>
      </trkpt>
      <trkpt lat="46.17996" lon="6.58414">
        <ele>2031.88</ele>
        <time>2018-01-28T11:41:28Z</time>
      </trkpt>
      <trkpt lat="46.18" lon="6.58444">
        <ele>2022.75</ele>
        <time>2018-01-28T11:41:43Z</time>
      </trkpt>
      <trkpt lat="46.17998" lon="6.58466">
        <ele>2013.62</ele>
        <time>2018-01-28T11:42:12Z</time>
      </trkpt>
      <trkpt lat="46.18003" lon="6.58491">
        <ele>2005.45</ele>
        <time>2018-01-28T11:42:19Z</time>
      </trkpt>
      <trkpt lat="46.18008" lon="6.58522">
        <ele>1995.35</ele>
        <time>2018-01-28T11:42:25Z</time>
      </trkpt>
      <trkpt lat="46.17996" lon="6.58546">
        <ele>1981.41</ele>
        <time>2018-01-28T11:42:31Z</time>
      </trkpt>
      <trkpt lat="46.17981" lon="6.58564">
        <ele>1968.44</ele>
        <time>2018-01-28T11:42:37Z</time>
      </trkpt>
      <trkpt lat="46.17966" lon="6.58592">
        <ele>1953.54</ele>
        <time>2018-01-28T11:42:44Z</time>
      </trkpt>
      <trkpt lat="46.17956" lon="6.5862">
        <ele>1939.6</ele>
        <time>2018-01-28T11:42:50Z</time>
      </trkpt>
      <trkpt lat="46.1794" lon="6.5864">
        <ele>1927.58</ele>
        <time>2018-01-28T11:43:59Z</time>
      </trkpt>
      <trkpt lat="46.17922" lon="6.58664">
        <ele>1915.56</ele>
        <time>2018-01-28T11:44:04Z</time>
      </trkpt>
      <trkpt lat="46.17902" lon="6.58683">
        <ele>1905.95</ele>
        <time>2018-01-28T11:44:09Z</time>
      </trkpt>
      <trkpt lat="46.17905" lon="6.58714">
        <ele>1902.11</ele>
        <time>2018-01-28T11:44:15Z</time>
      </trkpt>
      <trkpt lat="46.17902" lon="6.58741">
        <ele>1897.3</ele>
        <time>2018-01-28T11:44:22Z</time>
      </trkpt>
      <trkpt lat="46.17905" lon="6.5876">
        <ele>1892.49</ele>
        <time>2018-01-28T11:44:46Z</time>
      </trkpt>
      <trkpt lat="46.17931" lon="6.58759">
        <ele>1884.8</ele>
        <time>2018-01-28T11:44:52Z</time>
      </trkpt>
      <trkpt lat="46.17959" lon="6.58775">
        <ele>1878.07</ele>
        <time>2018-01-28T11:44:59Z</time>
      </trkpt>
      <trkpt lat="46.17962" lon="6.588">
        <ele>1866.54</ele>
        <time>2018-01-28T11:45:07Z</time>
      </trkpt>
      <trkpt lat="46.17968" lon="6.58824">
        <ele>1856.92</ele>
        <time>2018-01-28T11:45:33Z</time>
      </trkpt>
      <trkpt lat="46.17959" lon="6.58854">
        <ele>1843.47</ele>
        <time>2018-01-28T11:45:40Z</time>
      </trkpt>
      <trkpt lat="46.17955" lon="6.58887">
        <ele>1829.05</ele>
        <time>2018-01-28T11:45:46Z</time>
      </trkpt>
      <trkpt lat="46.1795" lon="6.58925">
        <ele>1814.15</ele>
        <time>2018-01-28T11:45:52Z</time>
      </trkpt>
      <trkpt lat="46.17951" lon="6.58955">
        <ele>1803.57</ele>
        <time>2018-01-28T11:46:19Z</time>
      </trkpt>
      <trkpt lat="46.17975" lon="6.58979">
        <ele>1795.4</ele>
        <time>2018-01-28T11:46:28Z</time>
      </trkpt>
      <trkpt lat="46.17994" lon="6.58999">
        <ele>1791.55</ele>
        <time>2018-01-28T11:46:34Z</time>
      </trkpt>
      <trkpt lat="46.18016" lon="6.59022">
        <ele>1788.19</ele>
        <time>2018-01-28T11:46:42Z</time>
      </trkpt>
      <trkpt lat="46.18031" lon="6.59052">
        <ele>1784.34</ele>
        <time>2018-01-28T11:46:49Z</time>
      </trkpt>
      <trkpt lat="46.18022" lon="6.59087">
        <ele>1781.46</ele>
        <time>2018-01-28T11:46:57Z</time>
      </trkpt>
      <trkpt lat="46.18012" lon="6.59127">
        <ele>1778.58</ele>
        <time>2018-01-28T11:47:05Z</time>
      </trkpt>
      <trkpt lat="46.17996" lon="6.59154">
        <ele>1770.89</ele>
        <time>2018-01-28T11:47:13Z</time>
      </trkpt>
      <trkpt lat="46.17982" lon="6.59172">
        <ele>1762.23</ele>
        <time>2018-01-28T11:47:35Z</time>
      </trkpt>
      <trkpt lat="46.17972" lon="6.59207">
        <ele>1752.62</ele>
        <time>2018-01-28T11:47:41Z</time>
      </trkpt>
      <trkpt lat="46.17955" lon="6.59231">
        <ele>1743.01</ele>
        <time>2018-01-28T11:47:46Z</time>
      </trkpt>
      <trkpt lat="46.17936" lon="6.59247">
        <ele>1737.24</ele>
        <time>2018-01-28T11:47:51Z</time>
      </trkpt>
      <trkpt lat="46.17926" lon="6.59276">
        <ele>1732.91</ele>
        <time>2018-01-28T11:47:55Z</time>
      </trkpt>
      <trkpt lat="46.17909" lon="6.59297">
        <ele>1730.99</ele>
        <time>2018-01-28T11:48:03Z</time>
      </trkpt>
      <trkpt lat="46.17939" lon="6.59298">
        <ele>1724.26</ele>
        <time>2018-01-28T11:48:13Z</time>
      </trkpt>
      <trkpt lat="46.17947" lon="6.59325">
        <ele>1718.97</ele>
        <time>2018-01-28T11:48:21Z</time>
      </trkpt>
      <trkpt lat="46.17949" lon="6.5935">
        <ele>1715.61</ele>
        <time>2018-01-28T11:48:39Z</time>
      </trkpt>
      <trkpt lat="46.17939" lon="6.59372">
        <ele>1707.92</ele>
        <time>2018-01-28T11:48:46Z</time>
      </trkpt>
      <trkpt lat="46.17926" lon="6.594">
        <ele>1698.79</ele>
        <time>2018-01-28T11:48:52Z</time>
      </trkpt>
      <trkpt lat="46.17908" lon="6.59422">
        <ele>1692.54</ele>
        <time>2018-01-28T11:48:57Z</time>
      </trkpt>
      <trkpt lat="46.17903" lon="6.59454">
        <ele>1689.17</ele>
        <time>2018-01-28T11:49:02Z</time>
      </trkpt>
      <trkpt lat="46.17885" lon="6.59477">
        <ele>1685.33</ele>
        <time>2018-01-28T11:49:08Z</time>
      </trkpt>
      <trkpt lat="46.17855" lon="6.59527">
        <ele>1681</ele>
        <time>2018-01-28T11:49:16Z</time>
      </trkpt>
      <trkpt lat="46.1784" lon="6.59549">
        <ele>1681.96</ele>
        <time>2018-01-28T11:49:46Z</time>
      </trkpt>
      <trkpt lat="46.17847" lon="6.59556">
        <ele>1680.52</ele>
        <time>2018-01-28T11:54:17Z</time>
      </trkpt>
      <trkpt lat="46.17846" lon="6.59561">
        <ele>1681.48</ele>
        <time>2018-01-28T12:02:50Z</time>
      </trkpt>
      <trkpt lat="46.17844" lon="6.59555">
        <ele>1683.41</ele>
        <time>2018-01-28T12:13:05Z</time>
      </trkpt>
      <trkpt lat="46.17831" lon="6.59593">
        <ele>1680.04</ele>
        <time>2018-01-28T12:13:43Z</time>
      </trkpt>
      <trkpt lat="46.17833" lon="6.59622">
        <ele>1674.27</ele>
        <time>2018-01-28T12:13:53Z</time>
      </trkpt>
      <trkpt lat="46.17815" lon="6.59642">
        <ele>1671.87</ele>
        <time>2018-01-28T12:14:00Z</time>
      </trkpt>
      <trkpt lat="46.17818" lon="6.59674">
        <ele>1668.51</ele>
        <time>2018-01-28T12:14:09Z</time>
      </trkpt>
      <trkpt lat="46.17823" lon="6.59705">
        <ele>1663.7</ele>
        <time>2018-01-28T12:14:15Z</time>
      </trkpt>
      <trkpt lat="46.17822" lon="6.59737">
        <ele>1660.81</ele>
        <time>2018-01-28T12:14:21Z</time>
      </trkpt>
      <trkpt lat="46.17815" lon="6.59769">
        <ele>1658.41</ele>
        <time>2018-01-28T12:14:26Z</time>
      </trkpt>
      <trkpt lat="46.17795" lon="6.59777">
        <ele>1653.12</ele>
        <time>2018-01-28T12:14:46Z</time>
      </trkpt>
      <trkpt lat="46.17779" lon="6.59785">
        <ele>1639.67</ele>
        <time>2018-01-28T12:14:56Z</time>
      </trkpt>
      <trkpt lat="46.1778" lon="6.59812">
        <ele>1630.05</ele>
        <time>2018-01-28T12:15:23Z</time>
      </trkpt>
      <trkpt lat="46.17798" lon="6.59844">
        <ele>1619.96</ele>
        <time>2018-01-28T12:15:35Z</time>
      </trkpt>
      <trkpt lat="46.17795" lon="6.59874">
        <ele>1609.38</ele>
        <time>2018-01-28T12:15:46Z</time>
      </trkpt>
      <trkpt lat="46.17814" lon="6.59904">
        <ele>1606.02</ele>
        <time>2018-01-28T12:15:53Z</time>
      </trkpt>
      <trkpt lat="46.17834" lon="6.59945">
        <ele>1601.69</ele>
        <time>2018-01-28T12:16:06Z</time>
      </trkpt>
      <trkpt lat="46.17824" lon="6.59959">
        <ele>1597.37</ele>
        <time>2018-01-28T12:18:52Z</time>
      </trkpt>
      <trkpt lat="46.17816" lon="6.59986">
        <ele>1588.24</ele>
        <time>2018-01-28T12:18:58Z</time>
      </trkpt>
      <trkpt lat="46.17797" lon="6.60004">
        <ele>1575.26</ele>
        <time>2018-01-28T12:19:06Z</time>
      </trkpt>
      <trkpt lat="46.17781" lon="6.6002">
        <ele>1564.68</ele>
        <time>2018-01-28T12:19:13Z</time>
      </trkpt>
      <trkpt lat="46.17769" lon="6.60042">
        <ele>1554.11</ele>
        <time>2018-01-28T12:19:20Z</time>
      </trkpt>
      <trkpt lat="46.17753" lon="6.60072">
        <ele>1540.65</ele>
        <time>2018-01-28T12:19:27Z</time>
      </trkpt>
      <trkpt lat="46.17722" lon="6.6008">
        <ele>1530.08</ele>
        <time>2018-01-28T12:19:45Z</time>
      </trkpt>
      <trkpt lat="46.17706" lon="6.60099">
        <ele>1523.35</ele>
        <time>2018-01-28T12:19:53Z</time>
      </trkpt>
      <trkpt lat="46.17703" lon="6.601">
        <ele>1523.35</ele>
        <time>2018-01-28T12:24:30Z</time>
      </trkpt>
      <trkpt lat="46.17702" lon="6.60131">
        <ele>1515.66</ele>
        <time>2018-01-28T12:24:40Z</time>
      </trkpt>
      <trkpt lat="46.17702" lon="6.60162">
        <ele>1507.97</ele>
        <time>2018-01-28T12:24:48Z</time>
      </trkpt>
      <trkpt lat="46.17703" lon="6.60193">
        <ele>1500.27</ele>
        <time>2018-01-28T12:25:18Z</time>
      </trkpt>
      <trkpt lat="46.17711" lon="6.60223">
        <ele>1494.03</ele>
        <time>2018-01-28T12:25:26Z</time>
      </trkpt>
      <trkpt lat="46.17729" lon="6.60246">
        <ele>1490.66</ele>
        <time>2018-01-28T12:25:33Z</time>
      </trkpt>
      <trkpt lat="46.17722" lon="6.60276">
        <ele>1484.89</ele>
        <time>2018-01-28T12:26:17Z</time>
      </trkpt>
      <trkpt lat="46.17722" lon="6.60304">
        <ele>1479.61</ele>
        <time>2018-01-28T12:26:24Z</time>
      </trkpt>
      <trkpt lat="46.17715" lon="6.60324">
        <ele>1475.76</ele>
        <time>2018-01-28T12:26:59Z</time>
      </trkpt>
      <trkpt lat="46.17688" lon="6.60323">
        <ele>1468.55</ele>
        <time>2018-01-28T12:27:11Z</time>
      </trkpt>
      <trkpt lat="46.17682" lon="6.60349">
        <ele>1462.78</ele>
        <time>2018-01-28T12:27:22Z</time>
      </trkpt>
      <trkpt lat="46.17648" lon="6.60355">
        <ele>1456.05</ele>
        <time>2018-01-28T12:28:31Z</time>
      </trkpt>
      <trkpt lat="46.1763" lon="6.60366">
        <ele>1449.32</ele>
        <time>2018-01-28T12:28:56Z</time>
      </trkpt>
      <trkpt lat="46.17594" lon="6.60365">
        <ele>1444.52</ele>
        <time>2018-01-28T12:29:07Z</time>
      </trkpt>
      <trkpt lat="46.17604" lon="6.60396">
        <ele>1439.71</ele>
        <time>2018-01-28T12:29:58Z</time>
      </trkpt>
      <trkpt lat="46.17591" lon="6.60423">
        <ele>1433.94</ele>
        <time>2018-01-28T12:30:07Z</time>
      </trkpt>
      <trkpt lat="46.17587" lon="6.60456">
        <ele>1428.18</ele>
        <time>2018-01-28T12:30:21Z</time>
      </trkpt>
      <trkpt lat="46.17577" lon="6.60484">
        <ele>1425.29</ele>
        <time>2018-01-28T12:30:31Z</time>
      </trkpt>
      <trkpt lat="46.17571" lon="6.6051">
        <ele>1421.93</ele>
        <time>2018-01-28T12:31:47Z</time>
      </trkpt>
      <trkpt lat="46.17545" lon="6.60538">
        <ele>1418.08</ele>
        <time>2018-01-28T12:31:59Z</time>
      </trkpt>
      <trkpt lat="46.17527" lon="6.60555">
        <ele>1415.2</ele>
        <time>2018-01-28T12:32:07Z</time>
      </trkpt>
      <trkpt lat="46.17516" lon="6.60593">
        <ele>1412.79</ele>
        <time>2018-01-28T12:32:14Z</time>
      </trkpt>
      <trkpt lat="46.17508" lon="6.60638">
        <ele>1408.95</ele>
        <time>2018-01-28T12:32:29Z</time>
      </trkpt>
      <trkpt lat="46.17493" lon="6.60677">
        <ele>1405.1</ele>
        <time>2018-01-28T12:32:47Z</time>
      </trkpt>
      <trkpt lat="46.17488" lon="6.60709">
        <ele>1401.26</ele>
        <time>2018-01-28T12:32:58Z</time>
      </trkpt>
      <trkpt lat="46.17481" lon="6.60746">
        <ele>1395.97</ele>
        <time>2018-01-28T12:33:23Z</time>
      </trkpt>
      <trkpt lat="46.17477" lon="6.60777">
        <ele>1391.17</ele>
        <time>2018-01-28T12:33:44Z</time>
      </trkpt>
      <trkpt lat="46.1747" lon="6.60823">
        <ele>1384.92</ele>
        <time>2018-01-28T12:33:57Z</time>
      </trkpt>
      <trkpt lat="46.17464" lon="6.60855">
        <ele>1382.03</ele>
        <time>2018-01-28T12:34:06Z</time>
      </trkpt>
      <trkpt lat="46.17443" lon="6.60897">
        <ele>1378.19</ele>
        <time>2018-01-28T12:34:27Z</time>
      </trkpt>
      <trkpt lat="46.1743" lon="6.60923">
        <ele>1373.38</ele>
        <time>2018-01-28T12:34:48Z</time>
      </trkpt>
      <trkpt lat="46.17424" lon="6.60955">
        <ele>1370.02</ele>
        <time>2018-01-28T12:35:06Z</time>
      </trkpt>
      <trkpt lat="46.17403" lon="6.61014">
        <ele>1366.17</ele>
        <time>2018-01-28T12:35:23Z</time>
      </trkpt>
      <trkpt lat="46.17391" lon="6.61069">
        <ele>1364.25</ele>
        <time>2018-01-28T12:35:36Z</time>
      </trkpt>
      <trkpt lat="46.17385" lon="6.61116">
        <ele>1359.44</ele>
        <time>2018-01-28T12:35:57Z</time>
      </trkpt>
      <trkpt lat="46.17381" lon="6.61154">
        <ele>1357.04</ele>
        <time>2018-01-28T12:36:14Z</time>
      </trkpt>
      <trkpt lat="46.17381" lon="6.61177">
        <ele>1356.08</ele>
        <time>2018-01-28T12:38:14Z</time>
      </trkpt>
      <trkpt lat="46.17392" lon="6.61196">
        <ele>1357.04</ele>
        <time>2018-01-28T12:39:24Z</time>
      </trkpt>
      <trkpt lat="46.17394" lon="6.61209">
        <ele>1354.63</ele>
        <time>2018-01-28T12:42:47Z</time>
      </trkpt>
      <trkpt lat="46.17394" lon="6.61225">
        <ele>1357.52</ele>
        <time>2018-01-28T12:45:57Z</time>
      </trkpt>
      <trkpt lat="46.1739" lon="6.61258">
        <ele>1356.08</ele>
        <time>2018-01-28T12:46:09Z</time>
      </trkpt>
      <trkpt lat="46.17383" lon="6.61296">
        <ele>1354.63</ele>
        <time>2018-01-28T12:46:25Z</time>
      </trkpt>
      <trkpt lat="46.17345" lon="6.61303">
        <ele>1354.15</ele>
        <time>2018-01-28T12:46:44Z</time>
      </trkpt>
      <trkpt lat="46.17321" lon="6.61307">
        <ele>1353.67</ele>
        <time>2018-01-28T12:46:59Z</time>
      </trkpt>
      <trkpt lat="46.17294" lon="6.61345">
        <ele>1353.67</ele>
        <time>2018-01-28T12:47:29Z</time>
      </trkpt>
      <trkpt lat="46.17278" lon="6.61377">
        <ele>1353.67</ele>
        <time>2018-01-28T12:47:46Z</time>
      </trkpt>
      <trkpt lat="46.17253" lon="6.61429">
        <ele>1351.27</ele>
        <time>2018-01-28T12:48:02Z</time>
      </trkpt>
      <trkpt lat="46.17231" lon="6.61478">
        <ele>1348.39</ele>
        <time>2018-01-28T12:48:14Z</time>
      </trkpt>
      <trkpt lat="46.17212" lon="6.61527">
        <ele>1345.02</ele>
        <time>2018-01-28T12:48:25Z</time>
      </trkpt>
      <trkpt lat="46.17194" lon="6.61556">
        <ele>1342.14</ele>
        <time>2018-01-28T12:48:31Z</time>
      </trkpt>
      <trkpt lat="46.17177" lon="6.61578">
        <ele>1339.25</ele>
        <time>2018-01-28T12:48:48Z</time>
      </trkpt>
      <trkpt lat="46.17129" lon="6.61572">
        <ele>1334.45</ele>
        <time>2018-01-28T12:49:11Z</time>
      </trkpt>
      <trkpt lat="46.17104" lon="6.6156">
        <ele>1331.08</ele>
        <time>2018-01-28T12:49:19Z</time>
      </trkpt>
      <trkpt lat="46.17079" lon="6.61542">
        <ele>1328.2</ele>
        <time>2018-01-28T12:49:28Z</time>
      </trkpt>
      <trkpt lat="46.17055" lon="6.61516">
        <ele>1324.83</ele>
        <time>2018-01-28T12:49:38Z</time>
      </trkpt>
      <trkpt lat="46.17048" lon="6.61539">
        <ele>1322.91</ele>
        <time>2018-01-28T12:49:50Z</time>
      </trkpt>
      <trkpt lat="46.17068" lon="6.6156">
        <ele>1320.51</ele>
        <time>2018-01-28T12:50:08Z</time>
      </trkpt>
      <trkpt lat="46.17084" lon="6.61605">
        <ele>1317.14</ele>
        <time>2018-01-28T12:50:21Z</time>
      </trkpt>
      <trkpt lat="46.17107" lon="6.61652">
        <ele>1313.3</ele>
        <time>2018-01-28T12:50:42Z</time>
      </trkpt>
      <trkpt lat="46.17127" lon="6.61669">
        <ele>1310.9</ele>
        <time>2018-01-28T12:50:49Z</time>
      </trkpt>
      <trkpt lat="46.17173" lon="6.61675">
        <ele>1306.57</ele>
        <time>2018-01-28T12:51:19Z</time>
      </trkpt>
      <trkpt lat="46.17199" lon="6.61681">
        <ele>1304.17</ele>
        <time>2018-01-28T12:51:27Z</time>
      </trkpt>
      <trkpt lat="46.1719" lon="6.61707">
        <ele>1301.76</ele>
        <time>2018-01-28T12:51:51Z</time>
      </trkpt>
      <trkpt lat="46.17147" lon="6.61729">
        <ele>1297.92</ele>
        <time>2018-01-28T12:52:16Z</time>
      </trkpt>
      <trkpt lat="46.17111" lon="6.61747">
        <ele>1295.03</ele>
        <time>2018-01-28T12:52:27Z</time>
      </trkpt>
      <trkpt lat="46.17076" lon="6.61741">
        <ele>1291.67</ele>
        <time>2018-01-28T12:52:38Z</time>
      </trkpt>
      <trkpt lat="46.17054" lon="6.61725">
        <ele>1288.78</ele>
        <time>2018-01-28T12:52:51Z</time>
      </trkpt>
      <trkpt lat="46.17021" lon="6.61713">
        <ele>1285.9</ele>
        <time>2018-01-28T12:53:17Z</time>
      </trkpt>
      <trkpt lat="46.16996" lon="6.61701">
        <ele>1282.54</ele>
        <time>2018-01-28T12:53:24Z</time>
      </trkpt>
      <trkpt lat="46.16964" lon="6.61685">
        <ele>1278.69</ele>
        <time>2018-01-28T12:53:33Z</time>
      </trkpt>
      <trkpt lat="46.16941" lon="6.61674">
        <ele>1276.29</ele>
        <time>2018-01-28T12:53:39Z</time>
      </trkpt>
      <trkpt lat="46.16917" lon="6.61667">
        <ele>1273.88</ele>
        <time>2018-01-28T12:53:46Z</time>
      </trkpt>
      <trkpt lat="46.16895" lon="6.61666">
        <ele>1271</ele>
        <time>2018-01-28T12:53:52Z</time>
      </trkpt>
      <trkpt lat="46.16872" lon="6.61669">
        <ele>1269.56</ele>
        <time>2018-01-28T12:53:57Z</time>
      </trkpt>
      <trkpt lat="46.16848" lon="6.61668">
        <ele>1266.19</ele>
        <time>2018-01-28T12:54:30Z</time>
      </trkpt>
      <trkpt lat="46.16815" lon="6.61674">
        <ele>1263.79</ele>
        <time>2018-01-28T12:54:40Z</time>
      </trkpt>
      <trkpt lat="46.16771" lon="6.61683">
        <ele>1259.94</ele>
        <time>2018-01-28T12:54:52Z</time>
      </trkpt>
      <trkpt lat="46.16723" lon="6.61697">
        <ele>1255.62</ele>
        <time>2018-01-28T12:55:04Z</time>
      </trkpt>
      <trkpt lat="46.16697" lon="6.61708">
        <ele>1252.74</ele>
        <time>2018-01-28T12:55:12Z</time>
      </trkpt>
      <trkpt lat="46.16651" lon="6.61727">
        <ele>1250.81</ele>
        <time>2018-01-28T12:55:28Z</time>
      </trkpt>
      <trkpt lat="46.16598" lon="6.61754">
        <ele>1247.93</ele>
        <time>2018-01-28T12:55:45Z</time>
      </trkpt>
      <trkpt lat="46.1656" lon="6.61773">
        <ele>1244.56</ele>
        <time>2018-01-28T12:55:56Z</time>
      </trkpt>
      <trkpt lat="46.16537" lon="6.61788">
        <ele>1241.68</ele>
        <time>2018-01-28T12:56:27Z</time>
      </trkpt>
      <trkpt lat="46.16501" lon="6.61809">
        <ele>1238.8</ele>
        <time>2018-01-28T12:56:39Z</time>
      </trkpt>
      <trkpt lat="46.16468" lon="6.61828">
        <ele>1235.43</ele>
        <time>2018-01-28T12:56:49Z</time>
      </trkpt>
      <trkpt lat="46.16415" lon="6.61849">
        <ele>1232.07</ele>
        <time>2018-01-28T12:57:04Z</time>
      </trkpt>
      <trkpt lat="46.16378" lon="6.61856">
        <ele>1229.18</ele>
        <time>2018-01-28T12:57:14Z</time>
      </trkpt>
      <trkpt lat="46.16355" lon="6.61868">
        <ele>1225.82</ele>
        <time>2018-01-28T12:57:20Z</time>
      </trkpt>
      <trkpt lat="46.16323" lon="6.61887">
        <ele>1222.45</ele>
        <time>2018-01-28T12:57:27Z</time>
      </trkpt>
      <trkpt lat="46.16298" lon="6.61899">
        <ele>1219.09</ele>
        <time>2018-01-28T12:57:32Z</time>
      </trkpt>
      <trkpt lat="46.16249" lon="6.619">
        <ele>1213.8</ele>
        <time>2018-01-28T12:58:03Z</time>
      </trkpt>
      <trkpt lat="46.16218" lon="6.61892">
        <ele>1210.44</ele>
        <time>2018-01-28T12:58:09Z</time>
      </trkpt>
      <trkpt lat="46.16159" lon="6.61871">
        <ele>1207.07</ele>
        <time>2018-01-28T12:58:21Z</time>
      </trkpt>
      <trkpt lat="46.16091" lon="6.61864">
        <ele>1204.67</ele>
        <time>2018-01-28T12:58:39Z</time>
      </trkpt>
      <trkpt lat="46.16054" lon="6.61865">
        <ele>1204.67</ele>
        <time>2018-01-28T12:58:53Z</time>
      </trkpt>
      <trkpt lat="46.16027" lon="6.61862">
        <ele>1203.71</ele>
        <time>2018-01-28T12:59:05Z</time>
      </trkpt>
      <trkpt lat="46.15999" lon="6.6186">
        <ele>1202.75</ele>
        <time>2018-01-28T12:59:17Z</time>
      </trkpt>
      <trkpt lat="46.15957" lon="6.61854">
        <ele>1201.3</ele>
        <time>2018-01-28T12:59:32Z</time>
      </trkpt>
      <trkpt lat="46.15924" lon="6.61841">
        <ele>1199.38</ele>
        <time>2018-01-28T12:59:44Z</time>
      </trkpt>
      <trkpt lat="46.15877" lon="6.61823">
        <ele>1197.46</ele>
        <time>2018-01-28T13:00:16Z</time>
      </trkpt>
      <trkpt lat="46.15838" lon="6.61805">
        <ele>1196.5</ele>
        <time>2018-01-28T13:00:30Z</time>
      </trkpt>
      <trkpt lat="46.15812" lon="6.61794">
        <ele>1196.5</ele>
        <time>2018-01-28T13:00:44Z</time>
      </trkpt>
      <trkpt lat="46.15777" lon="6.61779">
        <ele>1196.5</ele>
        <time>2018-01-28T13:01:08Z</time>
      </trkpt>
      <trkpt lat="46.15726" lon="6.61757">
        <ele>1193.13</ele>
        <time>2018-01-28T13:01:31Z</time>
      </trkpt>
      <trkpt lat="46.15665" lon="6.61747">
        <ele>1189.77</ele>
        <time>2018-01-28T13:01:47Z</time>
      </trkpt>
      <trkpt lat="46.15618" lon="6.61754">
        <ele>1189.29</ele>
        <time>2018-01-28T13:02:14Z</time>
      </trkpt>
      <trkpt lat="46.15595" lon="6.61763">
        <ele>1187.37</ele>
        <time>2018-01-28T13:03:02Z</time>
      </trkpt>
      <trkpt lat="46.15594" lon="6.61755">
        <ele>1188.33</ele>
        <time>2018-01-28T13:05:43Z</time>
      </trkpt>
      <trkpt lat="46.15593" lon="6.61755">
        <ele>1186.88</ele>
        <time>2018-01-28T13:06:05Z</time>
      </trkpt>
    </trkseg>
  </trk>
</gpx>